sensor_id;sensor_type;location;lat;lon;timestamp;P1;durP1;ratioP1;P2;durP2;ratioP2
54458;SDS011;40368;49.350;8.152;2022-11-15T00:01:30;68;;;126;;
54458;SDS011;40368;49.350;8.152;2022-11-15T00:03:21;68;;;123;;
54458;SDS011;40368;49.350;8.152;2022-11-15T00:04:35;69;;;110;;
54458;SDS011;40368;49.350;8.152;2022-11-15T00:06:26;69;;;113;;
54458;SDS011;40368;49.350;8.152;2022-11-15T00:07:40;66;;;115;;
54458;SDS011;40368;49.350;8.152;2022-11-15T00:09:32;70;;;116;;
54458;SDS011;40368;49.350;8.152;2022-11-15T00:11:23;62;;;87;;
54458;SDS011;40368;49.350;8.152;2022-11-15T00:12:37;63;;;107;;
54458;SDS011;40368;49.350;8.152;2022-11-15T00:14:28;66;;;119;;
54458;SDS011;40368;49.350;8.152;2022-11-15T00:16:19;75;;;132;;
54458;SDS011;40368;49.350;8.152;2022-11-15T00:17:33;65;;;99;;
54458;SDS011;40368;49.350;8.152;2022-11-15T00:19:24;66;;;100;;
54458;SDS011;40368;49.350;8.152;2022-11-15T00:20:39;70;;;120;;
54458;SDS011;40368;49.350;8.152;2022-11-15T00:22:31;70;;;114;;
54458;SDS011;40368;49.350;8.152;2022-11-15T00:24:21;70;;;109;;
54458;SDS011;40368;49.350;8.152;2022-11-15T00:25:35;70;;;105;;
54458;SDS011;40368;49.350;8.152;2022-11-15T00:27:26;67;;;108;;
54458;SDS011;40368;49.350;8.152;2022-11-15T00:30:31;64;;;105;;
54458;SDS011;40368;49.350;8.152;2022-11-15T00:32:23;66;;;101;;
54458;SDS011;40368;49.350;8.152;2022-11-15T00:33:37;63;;;115;;
54458;SDS011;40368;49.350;8.152;2022-11-15T00:35:28;68;;;117;;
54458;SDS011;40368;49.350;8.152;2022-11-15T00:37:19;64;;;101;;
54458;SDS011;40368;49.350;8.152;2022-11-15T00:38:34;70;;;119;;
54458;SDS011;40368;49.350;8.152;2022-11-15T00:40:24;65;;;100;;
54458;SDS011;40368;49.350;8.152;2022-11-15T00:41:39;65;;;136;;
54458;SDS011;40368;49.350;8.152;2022-11-15T00:45:21;68;;;142;;
54458;SDS011;40368;49.350;8.152;2022-11-15T00:46:35;68;;;101;;
54458;SDS011;40368;49.350;8.152;2022-11-15T00:48:55;64;;;96;;
54458;SDS011;40368;49.350;8.152;2022-11-15T00:49:32;69;;;96;;
54458;SDS011;40368;49.350;8.152;2022-11-15T00:50:09;64;;;101;;
54458;SDS011;40368;49.350;8.152;2022-11-15T00:51:23;67;;;100;;
54458;SDS011;40368;49.350;8.152;2022-11-15T00:52:37;71;;;117;;
54458;SDS011;40368;49.350;8.152;2022-11-15T00:54:29;68;;;113;;
54458;SDS011;40368;49.350;8.152;2022-11-15T00:56:20;68;;;124;;
54458;SDS011;40368;49.350;8.152;2022-11-15T00:57:34;72;;;108;;
54458;SDS011;40368;49.350;8.152;2022-11-15T00:59:25;67;;;92;;
54458;SDS011;40368;49.350;8.152;2022-11-15T01:00:39;70;;;120;;
54458;SDS011;40368;49.350;8.152;2022-11-15T01:02:30;64;;;96;;
54458;SDS011;40368;49.350;8.152;2022-11-15T01:04:22;63;;;115;;
54458;SDS011;40368;49.350;8.152;2022-11-15T01:05:36;66;;;101;;
54458;SDS011;40368;49.350;8.152;2022-11-15T01:07:27;67;;;97;;
54458;SDS011;40368;49.350;8.152;2022-11-15T01:08:41;68;;;108;;
54458;SDS011;40368;49.350;8.152;2022-11-15T01:10:32;65;;;111;;
54458;SDS011;40368;49.350;8.152;2022-11-15T01:12:23;71;;;114;;
54458;SDS011;40368;49.350;8.152;2022-11-15T01:13:38;74;;;158;;
54458;SDS011;40368;49.350;8.152;2022-11-15T01:15:29;64;;;136;;
54458;SDS011;40368;49.350;8.152;2022-11-15T01:17:20;70;;;119;;
54458;SDS011;40368;49.350;8.152;2022-11-15T01:18:34;66;;;105;;
54458;SDS011;40368;49.350;8.152;2022-11-15T01:19:11;69;;;124;;
54458;SDS011;40368;49.350;8.152;2022-11-15T01:20:25;67;;;104;;
54458;SDS011;40368;49.350;8.152;2022-11-15T01:21:39;66;;;104;;
54458;SDS011;40368;49.350;8.152;2022-11-15T01:23:31;67;;;95;;
54458;SDS011;40368;49.350;8.152;2022-11-15T01:25:22;63;;;88;;
54458;SDS011;40368;49.350;8.152;2022-11-15T01:26:36;69;;;107;;
54458;SDS011;40368;49.350;8.152;2022-11-15T01:28:29;73;;;113;;
54458;SDS011;40368;49.350;8.152;2022-11-15T01:29:41;74;;;116;;
54458;SDS011;40368;49.350;8.152;2022-11-15T01:31:32;73;;;127;;
54458;SDS011;40368;49.350;8.152;2022-11-15T01:33:24;70;;;105;;
54458;SDS011;40368;49.350;8.152;2022-11-15T01:34:38;71;;;113;;
54458;SDS011;40368;49.350;8.152;2022-11-15T01:36:29;78;;;130;;
54458;SDS011;40368;49.350;8.152;2022-11-15T01:38:20;68;;;116;;
54458;SDS011;40368;49.350;8.152;2022-11-15T01:39:34;74;;;131;;
54458;SDS011;40368;49.350;8.152;2022-11-15T01:41:26;71;;;112;;
54458;SDS011;40368;49.350;8.152;2022-11-15T01:42:39;70;;;116;;
54458;SDS011;40368;49.350;8.152;2022-11-15T01:44:36;69;;;120;;
54458;SDS011;40368;49.350;8.152;2022-11-15T01:46:23;66;;;115;;
54458;SDS011;40368;49.350;8.152;2022-11-15T01:47:37;71;;;131;;
54458;SDS011;40368;49.350;8.152;2022-11-15T01:48:51;72;;;107;;
54458;SDS011;40368;49.350;8.152;2022-11-15T01:50:33;71;;;120;;
54458;SDS011;40368;49.350;8.152;2022-11-15T01:53:39;71;;;127;;
54458;SDS011;40368;49.350;8.152;2022-11-15T01:55:30;67;;;119;;
54458;SDS011;40368;49.350;8.152;2022-11-15T01:57:21;73;;;125;;
54458;SDS011;40368;49.350;8.152;2022-11-15T01:58:35;71;;;121;;
54458;SDS011;40368;49.350;8.152;2022-11-15T02:00:26;65;;;106;;
54458;SDS011;40368;49.350;8.152;2022-11-15T02:01:40;71;;;115;;
54458;SDS011;40368;49.350;8.152;2022-11-15T02:03:33;71;;;101;;
54458;SDS011;40368;49.350;8.152;2022-11-15T02:05:23;73;;;115;;
54458;SDS011;40368;49.350;8.152;2022-11-15T02:06:37;67;;;118;;
54458;SDS011;40368;49.350;8.152;2022-11-15T02:08:28;69;;;112;;
54458;SDS011;40368;49.350;8.152;2022-11-15T02:10:20;66;;;90;;
54458;SDS011;40368;49.350;8.152;2022-11-15T02:11:34;67;;;115;;
54458;SDS011;40368;49.350;8.152;2022-11-15T02:13:24;68;;;93;;
54458;SDS011;40368;49.350;8.152;2022-11-15T02:15:56;61;;;122;;
54458;SDS011;40368;49.350;8.152;2022-11-15T02:20:52;65;;;147;;
54458;SDS011;40368;49.350;8.152;2022-11-15T02:22:05;62;;;88;;
54458;SDS011;40368;49.350;8.152;2022-11-15T02:23:29;64;;;104;;
54458;SDS011;40368;49.350;8.152;2022-11-15T02:25:48;65;;;120;;
54458;SDS011;40368;49.350;8.152;2022-11-15T02:27:42;67;;;114;;
54458;SDS011;40368;49.350;8.152;2022-11-15T02:29:32;74;;;124;;
54458;SDS011;40368;49.350;8.152;2022-11-15T02:31:21;74;;;124;;
54458;SDS011;40368;49.350;8.152;2022-11-15T02:32:34;65;;;102;;
54458;SDS011;40368;49.350;8.152;2022-11-15T02:34:25;71;;;115;;
54458;SDS011;40368;49.350;8.152;2022-11-15T02:35:40;76;;;128;;
54458;SDS011;40368;49.350;8.152;2022-11-15T02:37:33;74;;;135;;
54458;SDS011;40368;49.350;8.152;2022-11-15T02:40:37;73;;;115;;
54458;SDS011;40368;49.350;8.152;2022-11-15T02:42:27;69;;;126;;
54458;SDS011;40368;49.350;8.152;2022-11-15T02:44:19;78;;;125;;
54458;SDS011;40368;49.350;8.152;2022-11-15T02:46:10;73;;;124;;
54458;SDS011;40368;49.350;8.152;2022-11-15T02:47:23;69;;;131;;
54458;SDS011;40368;49.350;8.152;2022-11-15T02:49:52;65;;;108;;
54458;SDS011;40368;49.350;8.152;2022-11-15T02:51:05;73;;;113;;
54458;SDS011;40368;49.350;8.152;2022-11-15T02:52:20;70;;;105;;
54458;SDS011;40368;49.350;8.152;2022-11-15T02:54:52;72;;;136;;
54458;SDS011;40368;49.350;8.152;2022-11-15T02:56:02;72;;;115;;
54458;SDS011;40368;49.350;8.152;2022-11-15T02:57:16;72;;;122;;
54458;SDS011;40368;49.350;8.152;2022-11-15T02:57:55;72;;;148;;
54458;SDS011;40368;49.350;8.152;2022-11-15T02:58:35;69;;;118;;
54458;SDS011;40368;49.350;8.152;2022-11-15T02:59:49;71;;;115;;
54458;SDS011;40368;49.350;8.152;2022-11-15T03:03:23;72;;;128;;
54458;SDS011;40368;49.350;8.152;2022-11-15T03:04:35;70;;;113;;
54458;SDS011;40368;49.350;8.152;2022-11-15T03:06:26;71;;;121;;
54458;SDS011;40368;49.350;8.152;2022-11-15T03:07:39;68;;;97;;
54458;SDS011;40368;49.350;8.152;2022-11-15T03:09:30;69;;;125;;
54458;SDS011;40368;49.350;8.152;2022-11-15T03:11:20;69;;;106;;
54458;SDS011;40368;49.350;8.152;2022-11-15T03:12:36;75;;;188;;
54458;SDS011;40368;49.350;8.152;2022-11-15T03:14:26;79;;;136;;
54458;SDS011;40368;49.350;8.152;2022-11-15T03:15:41;69;;;126;;
54458;SDS011;40368;49.350;8.152;2022-11-15T03:17:33;66;;;101;;
54458;SDS011;40368;49.350;8.152;2022-11-15T03:19:23;74;;;165;;
54458;SDS011;40368;49.350;8.152;2022-11-15T03:20:36;73;;;124;;
54458;SDS011;40368;49.350;8.152;2022-11-15T03:22:28;70;;;103;;
54458;SDS011;40368;49.350;8.152;2022-11-15T03:23:41;61;;;80;;
54458;SDS011;40368;49.350;8.152;2022-11-15T03:25:33;73;;;103;;
54458;SDS011;40368;49.350;8.152;2022-11-15T03:27:25;78;;;146;;
54458;SDS011;40368;49.350;8.152;2022-11-15T03:28:38;67;;;95;;
54458;SDS011;40368;49.350;8.152;2022-11-15T03:30:29;69;;;118;;
54458;SDS011;40368;49.350;8.152;2022-11-15T03:32:21;75;;;135;;
54458;SDS011;40368;49.350;8.152;2022-11-15T03:33:34;67;;;96;;
54458;SDS011;40368;49.350;8.152;2022-11-15T03:35:26;77;;;146;;
54458;SDS011;40368;49.350;8.152;2022-11-15T03:36:40;70;;;116;;
54458;SDS011;40368;49.350;8.152;2022-11-15T03:38:31;62;;;88;;
54458;SDS011;40368;49.350;8.152;2022-11-15T03:40:24;66;;;81;;
54458;SDS011;40368;49.350;8.152;2022-11-15T03:41:37;66;;;98;;
54458;SDS011;40368;49.350;8.152;2022-11-15T03:43:30;71;;;130;;
54458;SDS011;40368;49.350;8.152;2022-11-15T03:44:42;69;;;97;;
54458;SDS011;40368;49.350;8.152;2022-11-15T03:46:33;74;;;137;;
54458;SDS011;40368;49.350;8.152;2022-11-15T03:48:24;71;;;134;;
54458;SDS011;40368;49.350;8.152;2022-11-15T03:49:38;72;;;103;;
54458;SDS011;40368;49.350;8.152;2022-11-15T03:51:29;65;;;93;;
54458;SDS011;40368;49.350;8.152;2022-11-15T03:53:20;65;;;94;;
54458;SDS011;40368;49.350;8.152;2022-11-15T03:54:34;68;;;102;;
54458;SDS011;40368;49.350;8.152;2022-11-15T03:56:25;74;;;145;;
54458;SDS011;40368;49.350;8.152;2022-11-15T03:57:40;67;;;111;;
54458;SDS011;40368;49.350;8.152;2022-11-15T03:59:31;66;;;104;;
54458;SDS011;40368;49.350;8.152;2022-11-15T04:02:28;69;;;148;;
54458;SDS011;40368;49.350;8.152;2022-11-15T04:03:42;68;;;111;;
54458;SDS011;40368;49.350;8.152;2022-11-15T04:07:25;66;;;108;;
54458;SDS011;40368;49.350;8.152;2022-11-15T04:08:39;68;;;129;;
54458;SDS011;40368;49.350;8.152;2022-11-15T04:10:30;69;;;117;;
54458;SDS011;40368;49.350;8.152;2022-11-15T04:12:21;64;;;114;;
54458;SDS011;40368;49.350;8.152;2022-11-15T04:13:35;68;;;102;;
54458;SDS011;40368;49.350;8.152;2022-11-15T04:15:26;61;;;109;;
54458;SDS011;40368;49.350;8.152;2022-11-15T04:16:40;74;;;132;;
54458;SDS011;40368;49.350;8.152;2022-11-15T04:17:18;69;;;112;;
54458;SDS011;40368;49.350;8.152;2022-11-15T04:18:32;70;;;102;;
54458;SDS011;40368;49.350;8.152;2022-11-15T04:19:09;68;;;102;;
54458;SDS011;40368;49.350;8.152;2022-11-15T04:21:37;74;;;111;;
54458;SDS011;40368;49.350;8.152;2022-11-15T04:23:28;69;;;103;;
54458;SDS011;40368;49.350;8.152;2022-11-15T04:24:42;71;;;107;;
54458;SDS011;40368;49.350;8.152;2022-11-15T04:26:33;63;;;112;;
54458;SDS011;40368;49.350;8.152;2022-11-15T04:28:25;69;;;95;;
54458;SDS011;40368;49.350;8.152;2022-11-15T04:29:39;72;;;127;;
54458;SDS011;40368;49.350;8.152;2022-11-15T04:31:30;74;;;122;;
54458;SDS011;40368;49.350;8.152;2022-11-15T04:33:21;70;;;129;;
54458;SDS011;40368;49.350;8.152;2022-11-15T04:34:35;70;;;107;;
54458;SDS011;40368;49.350;8.152;2022-11-15T04:36:26;65;;;97;;
54458;SDS011;40368;49.350;8.152;2022-11-15T04:37:40;68;;;121;;
54458;SDS011;40368;49.350;8.152;2022-11-15T04:38:17;68;;;114;;
54458;SDS011;40368;49.350;8.152;2022-11-15T04:39:32;67;;;106;;
54458;SDS011;40368;49.350;8.152;2022-11-15T04:41:23;67;;;114;;
54458;SDS011;40368;49.350;8.152;2022-11-15T04:42:37;73;;;115;;
54458;SDS011;40368;49.350;8.152;2022-11-15T04:44:28;64;;;111;;
54458;SDS011;40368;49.350;8.152;2022-11-15T04:45:42;69;;;118;;
54458;SDS011;40368;49.350;8.152;2022-11-15T04:47:33;83;;;161;;
54458;SDS011;40368;49.350;8.152;2022-11-15T04:49:25;65;;;108;;
54458;SDS011;40368;49.350;8.152;2022-11-15T04:50:39;79;;;127;;
54458;SDS011;40368;49.350;8.152;2022-11-15T04:52:30;79;;;127;;
54458;SDS011;40368;49.350;8.152;2022-11-15T04:54:21;72;;;133;;
54458;SDS011;40368;49.350;8.152;2022-11-15T04:55:35;73;;;125;;
54458;SDS011;40368;49.350;8.152;2022-11-15T04:57:26;68;;;120;;
54458;SDS011;40368;49.350;8.152;2022-11-15T04:58:41;71;;;139;;
54458;SDS011;40368;49.350;8.152;2022-11-15T05:02:15;75;;;106;;
54458;SDS011;40368;49.350;8.152;2022-11-15T05:03:29;69;;;125;;
54458;SDS011;40368;49.350;8.152;2022-11-15T05:05:20;76;;;125;;
54458;SDS011;40368;49.350;8.152;2022-11-15T05:06:34;75;;;128;;
54458;SDS011;40368;49.350;8.152;2022-11-15T05:08:25;68;;;96;;
54458;SDS011;40368;49.350;8.152;2022-11-15T05:09:39;77;;;108;;
54458;SDS011;40368;49.350;8.152;2022-11-15T05:11:31;71;;;104;;
54458;SDS011;40368;49.350;8.152;2022-11-15T05:13:22;71;;;121;;
54458;SDS011;40368;49.350;8.152;2022-11-15T05:16:27;77;;;114;;
54458;SDS011;40368;49.350;8.152;2022-11-15T05:17:41;68;;;91;;
54458;SDS011;40368;49.350;8.152;2022-11-15T05:19:32;67;;;121;;
54458;SDS011;40368;49.350;8.152;2022-11-15T05:21:24;72;;;120;;
54458;SDS011;40368;49.350;8.152;2022-11-15T05:22:38;70;;;105;;
54458;SDS011;40368;49.350;8.152;2022-11-15T05:24:29;72;;;124;;
54458;SDS011;40368;49.350;8.152;2022-11-15T05:26:20;74;;;113;;
54458;SDS011;40368;49.350;8.152;2022-11-15T05:27:34;77;;;129;;
54458;SDS011;40368;49.350;8.152;2022-11-15T05:30:40;71;;;111;;
54458;SDS011;40368;49.350;8.152;2022-11-15T05:32:31;76;;;133;;
54458;SDS011;40368;49.350;8.152;2022-11-15T05:35:38;75;;;154;;
54458;SDS011;40368;49.350;8.152;2022-11-15T05:37:28;78;;;133;;
54458;SDS011;40368;49.350;8.152;2022-11-15T05:38:41;72;;;119;;
54458;SDS011;40368;49.350;8.152;2022-11-15T05:40:33;73;;;119;;
54458;SDS011;40368;49.350;8.152;2022-11-15T05:42:24;71;;;133;;
54458;SDS011;40368;49.350;8.152;2022-11-15T05:43:38;78;;;142;;
54458;SDS011;40368;49.350;8.152;2022-11-15T05:45:29;73;;;134;;
54458;SDS011;40368;49.350;8.152;2022-11-15T05:47:21;77;;;131;;
54458;SDS011;40368;49.350;8.152;2022-11-15T05:48:35;69;;;110;;
54458;SDS011;40368;49.350;8.152;2022-11-15T05:50:26;74;;;102;;
54458;SDS011;40368;49.350;8.152;2022-11-15T05:51:40;71;;;128;;
54458;SDS011;40368;49.350;8.152;2022-11-15T05:53:31;67;;;109;;
54458;SDS011;40368;49.350;8.152;2022-11-15T05:55:22;74;;;111;;
54458;SDS011;40368;49.350;8.152;2022-11-15T05:57:50;76;;;173;;
54458;SDS011;40368;49.350;8.152;2022-11-15T05:59:04;71;;;120;;
54458;SDS011;40368;49.350;8.152;2022-11-15T06:00:19;67;;;108;;
54458;SDS011;40368;49.350;8.152;2022-11-15T06:02:47;70;;;125;;
54458;SDS011;40368;49.350;8.152;2022-11-15T06:04:38;75;;;162;;
54458;SDS011;40368;49.350;8.152;2022-11-15T06:05:15;72;;;145;;
54458;SDS011;40368;49.350;8.152;2022-11-15T06:07:43;72;;;110;;
54458;SDS011;40368;49.350;8.152;2022-11-15T06:09:34;75;;;116;;
54458;SDS011;40368;49.350;8.152;2022-11-15T06:11:17;77;;;123;;
54458;SDS011;40368;49.350;8.152;2022-11-15T06:12:32;65;;;94;;
54458;SDS011;40368;49.350;8.152;2022-11-15T06:14:23;67;;;131;;
54458;SDS011;40368;49.350;8.152;2022-11-15T06:15:37;72;;;126;;
54458;SDS011;40368;49.350;8.152;2022-11-15T06:17:28;71;;;116;;
54458;SDS011;40368;49.350;8.152;2022-11-15T06:19:19;70;;;133;;
54458;SDS011;40368;49.350;8.152;2022-11-15T06:20:33;65;;;125;;
54458;SDS011;40368;49.350;8.152;2022-11-15T06:22:25;75;;;127;;
54458;SDS011;40368;49.350;8.152;2022-11-15T06:25:30;77;;;105;;
54458;SDS011;40368;49.350;8.152;2022-11-15T06:27:21;80;;;134;;
54458;SDS011;40368;49.350;8.152;2022-11-15T06:30:26;73;;;106;;
54458;SDS011;40368;49.350;8.152;2022-11-15T06:31:40;77;;;117;;
54458;SDS011;40368;49.350;8.152;2022-11-15T06:33:32;71;;;108;;
54458;SDS011;40368;49.350;8.152;2022-11-15T06:35:23;86;;;157;;
54458;SDS011;40368;49.350;8.152;2022-11-15T06:36:37;74;;;139;;
54458;SDS011;40368;49.350;8.152;2022-11-15T06:40:19;75;;;165;;
54458;SDS011;40368;49.350;8.152;2022-11-15T06:41:34;75;;;130;;
54458;SDS011;40368;49.350;8.152;2022-11-15T06:44:39;68;;;105;;
54458;SDS011;40368;49.350;8.152;2022-11-15T06:46:30;72;;;119;;
54458;SDS011;40368;49.350;8.152;2022-11-15T06:49:35;77;;;120;;
54458;SDS011;40368;49.350;8.152;2022-11-15T06:50:50;75;;;116;;
54458;SDS011;40368;49.350;8.152;2022-11-15T06:52:04;77;;;110;;
54458;SDS011;40368;49.350;8.152;2022-11-15T06:53:18;77;;;134;;
54458;SDS011;40368;49.350;8.152;2022-11-15T06:55:46;78;;;153;;
54458;SDS011;40368;49.350;8.152;2022-11-15T06:57:00;74;;;133;;
54458;SDS011;40368;49.350;8.152;2022-11-15T06:58:51;78;;;115;;
54458;SDS011;40368;49.350;8.152;2022-11-15T07:00:43;69;;;131;;
54458;SDS011;40368;49.350;8.152;2022-11-15T07:01:57;70;;;112;;
54458;SDS011;40368;49.350;8.152;2022-11-15T07:03:48;71;;;105;;
54458;SDS011;40368;49.350;8.152;2022-11-15T07:04:25;73;;;148;;
54458;SDS011;40368;49.350;8.152;2022-11-15T07:05:02;74;;;111;;
54458;SDS011;40368;49.350;8.152;2022-11-15T07:05:39;72;;;113;;
54458;SDS011;40368;49.350;8.152;2022-11-15T07:07:30;76;;;116;;
54458;SDS011;40368;49.350;8.152;2022-11-15T07:09:21;73;;;151;;
54458;SDS011;40368;49.350;8.152;2022-11-15T07:10:35;78;;;170;;
54458;SDS011;40368;49.350;8.152;2022-11-15T07:13:33;74;;;121;;
54458;SDS011;40368;49.350;8.152;2022-11-15T07:15:24;74;;;116;;
54458;SDS011;40368;49.350;8.152;2022-11-15T07:16:38;77;;;134;;
54458;SDS011;40368;49.350;8.152;2022-11-15T07:18:29;85;;;166;;
54458;SDS011;40368;49.350;8.152;2022-11-15T07:20:20;77;;;129;;
54458;SDS011;40368;49.350;8.152;2022-11-15T07:21:34;79;;;139;;
54458;SDS011;40368;49.350;8.152;2022-11-15T07:23:26;80;;;130;;
54458;SDS011;40368;49.350;8.152;2022-11-15T07:24:40;73;;;118;;
54458;SDS011;40368;49.350;8.152;2022-11-15T07:26:31;76;;;125;;
54458;SDS011;40368;49.350;8.152;2022-11-15T07:28:22;79;;;127;;
54458;SDS011;40368;49.350;8.152;2022-11-15T07:29:36;85;;;145;;
54458;SDS011;40368;49.350;8.152;2022-11-15T07:31:27;80;;;123;;
54458;SDS011;40368;49.350;8.152;2022-11-15T07:34:33;80;;;130;;
54458;SDS011;40368;49.350;8.152;2022-11-15T07:36:24;78;;;124;;
54458;SDS011;40368;49.350;8.152;2022-11-15T07:37:38;77;;;139;;
54458;SDS011;40368;49.350;8.152;2022-11-15T07:39:29;88;;;150;;
54458;SDS011;40368;49.350;8.152;2022-11-15T07:41:20;75;;;111;;
54458;SDS011;40368;49.350;8.152;2022-11-15T07:42:34;72;;;111;;
54458;SDS011;40368;49.350;8.152;2022-11-15T07:44:26;87;;;145;;
54458;SDS011;40368;49.350;8.152;2022-11-15T07:45:40;79;;;199;;
54458;SDS011;40368;49.350;8.152;2022-11-15T07:47:31;81;;;122;;
54458;SDS011;40368;49.350;8.152;2022-11-15T07:49:22;80;;;126;;
54458;SDS011;40368;49.350;8.152;2022-11-15T07:50:36;77;;;106;;
54458;SDS011;40368;49.350;8.152;2022-11-15T07:53:42;89;;;156;;
54458;SDS011;40368;49.350;8.152;2022-11-15T07:55:33;78;;;123;;
54458;SDS011;40368;49.350;8.152;2022-11-15T07:57:24;81;;;144;;
54458;SDS011;40368;49.350;8.152;2022-11-15T07:58:38;92;;;153;;
54458;SDS011;40368;49.350;8.152;2022-11-15T08:00:29;82;;;138;;
54458;SDS011;40368;49.350;8.152;2022-11-15T08:02:20;80;;;147;;
54458;SDS011;40368;49.350;8.152;2022-11-15T08:03:35;85;;;136;;
54458;SDS011;40368;49.350;8.152;2022-11-15T08:05:26;83;;;136;;
54458;SDS011;40368;49.350;8.152;2022-11-15T08:06:40;76;;;135;;
54458;SDS011;40368;49.350;8.152;2022-11-15T08:08:31;80;;;158;;
54458;SDS011;40368;49.350;8.152;2022-11-15T08:10:22;86;;;158;;
54458;SDS011;40368;49.350;8.152;2022-11-15T08:13:19;83;;;123;;
54458;SDS011;40368;49.350;8.152;2022-11-15T08:14:34;83;;;142;;
54458;SDS011;40368;49.350;8.152;2022-11-15T08:16:25;81;;;143;;
54458;SDS011;40368;49.350;8.152;2022-11-15T08:17:39;85;;;116;;
54458;SDS011;40368;49.350;8.152;2022-11-15T08:19:30;81;;;123;;
54458;SDS011;40368;49.350;8.152;2022-11-15T08:21:21;79;;;127;;
54458;SDS011;40368;49.350;8.152;2022-11-15T08:22:35;75;;;137;;
54458;SDS011;40368;49.350;8.152;2022-11-15T08:24:26;80;;;130;;
54458;SDS011;40368;49.350;8.152;2022-11-15T08:25:41;82;;;138;;
54458;SDS011;40368;49.350;8.152;2022-11-15T08:27:32;85;;;159;;
54458;SDS011;40368;49.350;8.152;2022-11-15T08:29:23;87;;;158;;
54458;SDS011;40368;49.350;8.152;2022-11-15T08:30:38;92;;;153;;
54458;SDS011;40368;49.350;8.152;2022-11-15T08:32:29;83;;;125;;
54458;SDS011;40368;49.350;8.152;2022-11-15T08:34:19;86;;;121;;
54458;SDS011;40368;49.350;8.152;2022-11-15T08:35:34;88;;;158;;
54458;SDS011;40368;49.350;8.152;2022-11-15T08:37:25;85;;;169;;
54458;SDS011;40368;49.350;8.152;2022-11-15T08:38:39;95;;;187;;
54458;SDS011;40368;49.350;8.152;2022-11-15T08:40:30;89;;;135;;
54458;SDS011;40368;49.350;8.152;2022-11-15T08:41:44;80;;;120;;
54458;SDS011;40368;49.350;8.152;2022-11-15T08:43:35;87;;;155;;
54458;SDS011;40368;49.350;8.152;2022-11-15T08:45:27;77;;;147;;
54458;SDS011;40368;49.350;8.152;2022-11-15T08:46:41;82;;;183;;
54458;SDS011;40368;49.350;8.152;2022-11-15T08:48:32;84;;;140;;
54458;SDS011;40368;49.350;8.152;2022-11-15T08:50:23;72;;;142;;
54458;SDS011;40368;49.350;8.152;2022-11-15T08:51:37;77;;;129;;
54458;SDS011;40368;49.350;8.152;2022-11-15T08:53:28;75;;;131;;
54458;SDS011;40368;49.350;8.152;2022-11-15T08:54:42;75;;;118;;
54458;SDS011;40368;49.350;8.152;2022-11-15T08:56:34;74;;;122;;
54458;SDS011;40368;49.350;8.152;2022-11-15T08:58:25;80;;;123;;
54458;SDS011;40368;49.350;8.152;2022-11-15T08:59:39;74;;;100;;
54458;SDS011;40368;49.350;8.152;2022-11-15T09:01:30;79;;;122;;
54458;SDS011;40368;49.350;8.152;2022-11-15T09:03:21;72;;;112;;
54458;SDS011;40368;49.350;8.152;2022-11-15T09:04:35;73;;;126;;
54458;SDS011;40368;49.350;8.152;2022-11-15T09:06:27;73;;;97;;
54458;SDS011;40368;49.350;8.152;2022-11-15T09:07:41;85;;;150;;
54458;SDS011;40368;49.350;8.152;2022-11-15T09:09:32;83;;;126;;
54458;SDS011;40368;49.350;8.152;2022-11-15T09:11:23;77;;;157;;
54458;SDS011;40368;49.350;8.152;2022-11-15T09:12:29;76;;;118;;
54458;SDS011;40368;49.350;8.152;2022-11-15T09:14:20;77;;;149;;
54458;SDS011;40368;49.350;8.152;2022-11-15T09:15:34;74;;;135;;
54458;SDS011;40368;49.350;8.152;2022-11-15T09:17:26;84;;;164;;
54458;SDS011;40368;49.350;8.152;2022-11-15T09:18:40;77;;;134;;
54458;SDS011;40368;49.350;8.152;2022-11-15T09:20:31;86;;;135;;
54458;SDS011;40368;49.350;8.152;2022-11-15T09:22:22;78;;;116;;
54458;SDS011;40368;49.350;8.152;2022-11-15T09:23:36;80;;;116;;
54458;SDS011;40368;49.350;8.152;2022-11-15T09:25:28;77;;;139;;
54458;SDS011;40368;49.350;8.152;2022-11-15T09:26:41;84;;;130;;
54458;SDS011;40368;49.350;8.152;2022-11-15T09:28:33;78;;;125;;
54458;SDS011;40368;49.350;8.152;2022-11-15T09:30:24;85;;;145;;
54458;SDS011;40368;49.350;8.152;2022-11-15T09:31:38;86;;;126;;
54458;SDS011;40368;49.350;8.152;2022-11-15T09:33:29;78;;;127;;
54458;SDS011;40368;49.350;8.152;2022-11-15T09:35:20;78;;;116;;
54458;SDS011;40368;49.350;8.152;2022-11-15T09:36:35;74;;;120;;
54458;SDS011;40368;49.350;8.152;2022-11-15T09:38:26;81;;;125;;
54458;SDS011;40368;49.350;8.152;2022-11-15T09:39:40;88;;;151;;
54458;SDS011;40368;49.350;8.152;2022-11-15T09:41:42;77;;;149;;
54458;SDS011;40368;49.350;8.152;2022-11-15T09:43:26;73;;;104;;
54458;SDS011;40368;49.350;8.152;2022-11-15T09:44:40;80;;;204;;
54458;SDS011;40368;49.350;8.152;2022-11-15T09:46:30;80;;;123;;
54458;SDS011;40368;49.350;8.152;2022-11-15T09:47:47;79;;;112;;
54458;SDS011;40368;49.350;8.152;2022-11-15T09:49:33;73;;;154;;
54458;SDS011;40368;49.350;8.152;2022-11-15T09:51:27;80;;;143;;
54458;SDS011;40368;49.350;8.152;2022-11-15T09:52:39;76;;;123;;
54458;SDS011;40368;49.350;8.152;2022-11-15T09:54:30;80;;;132;;
54458;SDS011;40368;49.350;8.152;2022-11-15T09:56:22;75;;;174;;
54458;SDS011;40368;49.350;8.152;2022-11-15T09:57:37;79;;;110;;
54458;SDS011;40368;49.350;8.152;2022-11-15T09:59:28;82;;;128;;
54458;SDS011;40368;49.350;8.152;2022-11-15T10:00:41;85;;;120;;
54458;SDS011;40368;49.350;8.152;2022-11-15T10:02:37;109;;;175;;
54458;SDS011;40368;49.350;8.152;2022-11-15T10:04:22;88;;;153;;
54458;SDS011;40368;49.350;8.152;2022-11-15T10:07:30;86;;;130;;
54458;SDS011;40368;49.350;8.152;2022-11-15T10:08:47;81;;;128;;
54458;SDS011;40368;49.350;8.152;2022-11-15T10:10:35;85;;;132;;
54458;SDS011;40368;49.350;8.152;2022-11-15T10:12:24;82;;;120;;
54458;SDS011;40368;49.350;8.152;2022-11-15T10:13:33;88;;;127;;
54458;SDS011;40368;49.350;8.152;2022-11-15T10:15:21;86;;;128;;
54458;SDS011;40368;49.350;8.152;2022-11-15T10:16:40;85;;;152;;
54458;SDS011;40368;49.350;8.152;2022-11-15T10:18:27;95;;;146;;
54458;SDS011;40368;49.350;8.152;2022-11-15T10:19:45;84;;;129;;
54458;SDS011;40368;49.350;8.152;2022-11-15T10:21:33;84;;;141;;
54458;SDS011;40368;49.350;8.152;2022-11-15T10:23:23;80;;;155;;
54458;SDS011;40368;49.350;8.152;2022-11-15T10:24:39;85;;;116;;
54458;SDS011;40368;49.350;8.152;2022-11-15T10:26:28;87;;;134;;
54458;SDS011;40368;49.350;8.152;2022-11-15T10:28:21;58;;;100;;
54458;SDS011;40368;49.350;8.152;2022-11-15T10:29:34;78;;;135;;
54458;SDS011;40368;49.350;8.152;2022-11-15T10:31:25;75;;;113;;
54458;SDS011;40368;49.350;8.152;2022-11-15T10:32:39;78;;;118;;
54458;SDS011;40368;49.350;8.152;2022-11-15T10:34:34;69;;;103;;
54458;SDS011;40368;49.350;8.152;2022-11-15T10:36:22;70;;;109;;
54458;SDS011;40368;49.350;8.152;2022-11-15T10:37:35;83;;;147;;
54458;SDS011;40368;49.350;8.152;2022-11-15T10:39:27;78;;;140;;